This is the latest recevied weather packets stored in our database for station/object G0AMO. If no packets are shown the sender has not sent any weather packets the latest 10 day(s).
| Time | Temp. | Humidity | Pressure | Rain* | Wind** | Luminosity | Snow |
|---|---|---|---|---|---|---|---|
| 1777471504 | 18.89° C | 30% | 1022.4 hPa | 0 mm | - | 1120 W/m² | - |
| 1777471204 | 18.33° C | 30% | 1022.4 hPa | 0 mm | - | 1136 W/m² | - |
| 1777468204 | 17.78° C | 33% | 1022 hPa | 0 mm | - | 1255 W/m² | - |
| 1777466105 | 17.22° C | 34% | 1022.4 hPa | 0 mm | - | 1288 W/m² | - |
| 1777464905 | 17.22° C | 34% | 1022.4 hPa | 0 mm | - | 1287 W/m² | - |
| 1777463704 | 17.22° C | 35% | 1022.7 hPa | 0 mm | - | 1271 W/m² | - |
| 1777461904 | 17.22° C | 39% | 1022.7 hPa | 0 mm | - | 1221 W/m² | - |
| 1777460404 | 17.22° C | 40% | 1022.7 hPa | 0 mm | - | 1157 W/m² | - |
| 1777458904 | 17.22° C | 39% | 1022.8 hPa | 0 mm | - | 1075 W/m² | - |
| 1777453205 | 13.89° C | 59% | 1023.4 hPa | 0 mm | - | 652 W/m² | - |
| 1777450805 | 12.78° C | 66% | 1024 hPa | 0 mm | - | 455 W/m² | - |
| 1777449004 | 11.67° C | 70% | 1023.7 hPa | 0 mm | - | 314 W/m² | - |
| 1777447804 | 10.56° C | 72% | 1023.7 hPa | 0 mm | - | 227 W/m² | - |
| 1777447204 | 10.56° C | 73% | 1023.7 hPa | 0 mm | - | 186 W/m² | - |
| 1777446606 | 10° C | 74% | 1023.7 hPa | 0 mm | - | 146 W/m² | - |
| 1777446305 | 10° C | 74% | 1023.4 hPa | 0 mm | - | 128 W/m² | - |
| 1777441504 | 7.22° C | 82% | 1022 hPa | 0 mm | - | 0 W/m² | - |
| 1777441205 | 7.22° C | 82% | 1023.7 hPa | 0 mm | - | 0 W/m² | - |
| 1777440904 | 6.67° C | 83% | 1023.7 hPa | 0 mm | - | 0 W/m² | - |
| 1777440305 | 6.67° C | 83% | 1022 hPa | 0 mm | - | 0 W/m² | - |
| 1777436405 | 6.67° C | 84% | 1024 hPa | 0 mm | - | 0 W/m² | - |
| 1777436104 | 6.67° C | 84% | 1022.4 hPa | 0 mm | - | 0 W/m² | - |
| 1777434904 | 6.11° C | 84% | 1023.4 hPa | 0 mm | - | 0 W/m² | - |
| 1777434605 | 6.11° C | 84% | 1023.9 hPa | 0 mm | - | 0 W/m² | - |
| 1777433704 | 6.11° C | 84% | 1024 hPa | 0 mm | - | 0 W/m² | - |
* Rain latest hour (hover to see other rain measurements)
** Current wind speed in m/s (hover to see current wind gust speed)